RYR7CW EBCI-LIMF
Flight info
| Callsign | RYR7CW |
|---|---|
| Flight time | 1h 15m |
| Altitude | 33000 |
| Route | RITAX UT27 ROUSY DCT GTQ DCT DEVDI DCT BASGO DCT AKASU DCT NELAB |
| Aircraft | B38M/M-SDE1FGHILORVWXY/HB1 |
Departure
| Time | 2026-04-29 20:09 |
|---|---|
| Airport | Brussels South Charleroi Airport (EBCI) |
Arrival
| Time | 2026-04-29 21:25 |
|---|---|
| Airport | Turin Airport (LIMF) |
| Time | Latitude | Longitude | Altitude | Speed | Heading |
|---|---|---|---|---|---|
| 2026-04-29 19:36 | 50.46868 | 4.47099 | 587 ft | 0 kts | 335° |
| 2026-04-29 19:55 | 50.46863 | 4.47103 | 587 ft | 4 kts | 335° |
| 2026-04-29 19:55 | 50.46840 | 4.47123 | 587 ft | 4 kts | 313° |
| 2026-04-29 19:56 | 50.46830 | 4.47156 | 588 ft | 4 kts | 268° |
| 2026-04-29 19:56 | 50.46833 | 4.47178 | 588 ft | 1 kts | 245° |
| 2026-04-29 20:01 | 50.46832 | 4.47174 | 588 ft | 1 kts | 245° |
| 2026-04-29 20:02 | 50.46824 | 4.47148 | 561 ft | 4 kts | 245° |
| 2026-04-29 20:02 | 50.46807 | 4.47089 | 588 ft | 8 kts | 245° |
| 2026-04-29 20:02 | 50.46779 | 4.46993 | 588 ft | 11 kts | 245° |
| 2026-04-29 20:02 | 50.46768 | 4.46956 | 588 ft | 11 kts | 245° |
| 2026-04-29 20:03 | 50.46697 | 4.46777 | 591 ft | 11 kts | 192° |
| 2026-04-29 20:03 | 50.46628 | 4.46801 | 594 ft | 10 kts | 184° |
| 2026-04-29 20:03 | 50.46582 | 4.46718 | 594 ft | 12 kts | 245° |
| 2026-04-29 20:03 | 50.46544 | 4.46586 | 593 ft | 15 kts | 245° |
| 2026-04-29 20:04 | 50.46494 | 4.46415 | 591 ft | 19 kts | 245° |
| 2026-04-29 20:04 | 50.46438 | 4.46226 | 593 ft | 20 kts | 245° |
| 2026-04-29 20:04 | 50.46380 | 4.46027 | 596 ft | 20 kts | 245° |
| 2026-04-29 20:04 | 50.46325 | 4.45836 | 600 ft | 20 kts | 245° |
| 2026-04-29 20:05 | 50.46267 | 4.45636 | 601 ft | 20 kts | 245° |
| 2026-04-29 20:05 | 50.46207 | 4.45428 | 601 ft | 22 kts | 245° |
| 2026-04-29 20:05 | 50.46162 | 4.45271 | 602 ft | 14 kts | 245° |
| 2026-04-29 20:05 | 50.46117 | 4.45115 | 599 ft | 18 kts | 245° |
| 2026-04-29 20:06 | 50.46061 | 4.44923 | 599 ft | 20 kts | 245° |
| 2026-04-29 20:06 | 50.46000 | 4.44714 | 599 ft | 22 kts | 245° |
| 2026-04-29 20:06 | 50.45937 | 4.44505 | 602 ft | 16 kts | 242° |
| 2026-04-29 20:06 | 50.45868 | 4.44348 | 602 ft | 19 kts | 231° |
| 2026-04-29 20:07 | 50.45786 | 4.44182 | 599 ft | 17 kts | 236° |
| 2026-04-29 20:07 | 50.45712 | 4.44033 | 597 ft | 17 kts | 230° |
| 2026-04-29 20:07 | 50.45630 | 4.44029 | 596 ft | 11 kts | 103° |
| 2026-04-29 20:07 | 50.45641 | 4.44105 | 596 ft | 0 kts | 66° |
| 2026-04-29 20:08 | 50.45654 | 4.44152 | 596 ft | 22 kts | 66° |
| 2026-04-29 20:08 | 50.45834 | 4.44769 | 601 ft | 100 kts | 65° |
| 2026-04-29 20:09 | 50.46209 | 4.46081 | 677 ft | 155 kts | 66° |
| 2026-04-29 20:09 | 50.46696 | 4.47760 | 1151 ft | 184 kts | 66° |
| 2026-04-29 20:09 | 50.47257 | 4.49556 | 2241 ft | 176 kts | 60° |
| 2026-04-29 20:09 | 50.48167 | 4.51024 | 2929 ft | 204 kts | 44° |
| 2026-04-29 20:10 | 50.49404 | 4.52358 | 3478 ft | 226 kts | 40° |
| 2026-04-29 20:10 | 50.50456 | 4.54100 | 4280 ft | 222 kts | 59° |
| 2026-04-29 20:10 | 50.51401 | 4.56130 | 5104 ft | 232 kts | 58° |
| 2026-04-29 20:10 | 50.52368 | 4.58177 | 6155 ft | 234 kts | 56° |
| 2026-04-29 20:11 | 50.53382 | 4.60236 | 6920 ft | 250 kts | 55° |
| 2026-04-29 20:11 | 50.54484 | 4.62461 | 7603 ft | 263 kts | 55° |
| 2026-04-29 20:11 | 50.55608 | 4.64733 | 8654 ft | 264 kts | 55° |
| 2026-04-29 20:11 | 50.56738 | 4.67024 | 9657 ft | 267 kts | 54° |
| 2026-04-29 20:12 | 50.57880 | 4.69343 | 10571 ft | 272 kts | 54° |
| 2026-04-29 20:12 | 50.59073 | 4.71770 | 11106 ft | 290 kts | 54° |
| 2026-04-29 20:12 | 50.60338 | 4.74344 | 11704 ft | 303 kts | 54° |
| 2026-04-29 20:12 | 50.61639 | 4.76994 | 12535 ft | 307 kts | 53° |
| 2026-04-29 20:13 | 50.62951 | 4.79671 | 13422 ft | 311 kts | 53° |
| 2026-04-29 20:13 | 50.64271 | 4.82398 | 14275 ft | 315 kts | 57° |
| 2026-04-29 20:13 | 50.65153 | 4.85557 | 15043 ft | 318 kts | 78° |
| 2026-04-29 20:13 | 50.65185 | 4.89056 | 15808 ft | 325 kts | 99° |
| 2026-04-29 20:14 | 50.64367 | 4.92410 | 16566 ft | 335 kts | 119° |
| 2026-04-29 20:14 | 50.62837 | 4.95234 | 17323 ft | 343 kts | 131° |
| 2026-04-29 20:14 | 50.61154 | 4.97930 | 18018 ft | 348 kts | 131° |
| 2026-04-29 20:14 | 50.59401 | 5.00603 | 18713 ft | 355 kts | 138° |
| 2026-04-29 20:15 | 50.57300 | 5.02691 | 19381 ft | 359 kts | 146° |
| 2026-04-29 20:15 | 50.55141 | 5.04710 | 19996 ft | 363 kts | 145° |
| 2026-04-29 20:15 | 50.52968 | 5.06762 | 20646 ft | 366 kts | 145° |
| 2026-04-29 20:15 | 50.50779 | 5.08835 | 21259 ft | 369 kts | 145° |
| 2026-04-29 20:16 | 50.48576 | 5.10922 | 21883 ft | 371 kts | 144° |
| 2026-04-29 20:16 | 50.46349 | 5.13030 | 22464 ft | 375 kts | 144° |
| 2026-04-29 20:16 | 50.44136 | 5.15124 | 23075 ft | 378 kts | 144° |
| 2026-04-29 20:16 | 50.41875 | 5.17260 | 23661 ft | 381 kts | 144° |
| 2026-04-29 20:17 | 50.39598 | 5.19411 | 24177 ft | 384 kts | 144° |
| 2026-04-29 20:17 | 50.37304 | 5.21574 | 24659 ft | 387 kts | 144° |
| 2026-04-29 20:17 | 50.34990 | 5.23754 | 25147 ft | 389 kts | 144° |
| 2026-04-29 20:17 | 50.32664 | 5.25943 | 25624 ft | 391 kts | 144° |
| 2026-04-29 20:18 | 50.30323 | 5.28142 | 26101 ft | 394 kts | 144° |
| 2026-04-29 20:18 | 50.27968 | 5.30353 | 26587 ft | 396 kts | 144° |
| 2026-04-29 20:18 | 50.25599 | 5.32573 | 27066 ft | 398 kts | 144° |
| 2026-04-29 20:18 | 50.23221 | 5.34801 | 27490 ft | 400 kts | 144° |
| 2026-04-29 20:19 | 50.20823 | 5.37043 | 27937 ft | 403 kts | 144° |
| 2026-04-29 20:19 | 50.18412 | 5.39296 | 28357 ft | 405 kts | 144° |
| 2026-04-29 20:19 | 50.15982 | 5.41563 | 28779 ft | 408 kts | 144° |
| 2026-04-29 20:19 | 50.13538 | 5.43841 | 29207 ft | 410 kts | 144° |
| 2026-04-29 20:20 | 50.11085 | 5.46124 | 29603 ft | 413 kts | 144° |
| 2026-04-29 20:20 | 50.08612 | 5.48424 | 30010 ft | 415 kts | 144° |
| 2026-04-29 20:20 | 50.06119 | 5.50738 | 30399 ft | 418 kts | 144° |
| 2026-04-29 20:20 | 50.03609 | 5.53066 | 30696 ft | 422 kts | 144° |
| 2026-04-29 20:21 | 50.01084 | 5.55404 | 31010 ft | 424 kts | 144° |
| 2026-04-29 20:21 | 49.98541 | 5.57757 | 31329 ft | 427 kts | 144° |
| 2026-04-29 20:21 | 49.95983 | 5.60119 | 31633 ft | 429 kts | 144° |
| 2026-04-29 20:21 | 49.93407 | 5.62497 | 31938 ft | 432 kts | 144° |
| 2026-04-29 20:22 | 49.90821 | 5.64880 | 32239 ft | 434 kts | 144° |
| 2026-04-29 20:22 | 49.88219 | 5.67275 | 32533 ft | 436 kts | 144° |
| 2026-04-29 20:22 | 49.85606 | 5.69678 | 32916 ft | 437 kts | 144° |
| 2026-04-29 20:22 | 49.82989 | 5.72080 | 33229 ft | 438 kts | 144° |
| 2026-04-29 20:23 | 49.77733 | 5.76896 | 33238 ft | 438 kts | 145° |
| 2026-04-29 20:23 | 49.72490 | 5.81689 | 33239 ft | 438 kts | 145° |
| 2026-04-29 20:24 | 49.67248 | 5.86467 | 33258 ft | 437 kts | 145° |
| 2026-04-29 20:24 | 49.62006 | 5.91235 | 33237 ft | 437 kts | 145° |
| 2026-04-29 20:25 | 49.56758 | 5.95995 | 33235 ft | 439 kts | 145° |
| 2026-04-29 20:25 | 49.51489 | 6.00763 | 33238 ft | 440 kts | 145° |
| 2026-04-29 20:26 | 49.46205 | 6.05532 | 33232 ft | 440 kts | 146° |
| 2026-04-29 20:26 | 49.40929 | 6.10282 | 33234 ft | 439 kts | 146° |
| 2026-04-29 20:27 | 49.36543 | 6.14222 | 33235 ft | 440 kts | 146° |
| 2026-04-29 20:27 | 49.30364 | 6.19757 | 33227 ft | 441 kts | 147° |
| 2026-04-29 20:28 | 49.25107 | 6.24455 | 33233 ft | 441 kts | 146° |
| 2026-04-29 20:28 | 49.19792 | 6.29192 | 33217 ft | 442 kts | 146° |
| 2026-04-29 20:29 | 49.14479 | 6.33916 | 33216 ft | 442 kts | 146° |
| 2026-04-29 20:29 | 49.09160 | 6.38633 | 33211 ft | 442 kts | 147° |
| 2026-04-29 20:30 | 49.03837 | 6.43342 | 33213 ft | 443 kts | 147° |
| 2026-04-29 20:30 | 48.98503 | 6.48048 | 33213 ft | 443 kts | 147° |
| 2026-04-29 20:31 | 48.93177 | 6.52736 | 33212 ft | 442 kts | 147° |
| 2026-04-29 20:31 | 48.87846 | 6.57416 | 33207 ft | 444 kts | 148° |
| 2026-04-29 20:32 | 48.82453 | 6.62140 | 33212 ft | 448 kts | 148° |
| 2026-04-29 20:32 | 48.77057 | 6.66854 | 33216 ft | 448 kts | 148° |
| 2026-04-29 20:33 | 48.71659 | 6.71558 | 33214 ft | 447 kts | 148° |
| 2026-04-29 20:33 | 48.66257 | 6.76253 | 33192 ft | 448 kts | 148° |
| 2026-04-29 20:34 | 48.60856 | 6.80936 | 33191 ft | 448 kts | 148° |
| 2026-04-29 20:34 | 48.55451 | 6.85611 | 33206 ft | 448 kts | 148° |
| 2026-04-29 20:35 | 48.50042 | 6.90278 | 33201 ft | 447 kts | 148° |
| 2026-04-29 20:35 | 48.44634 | 6.94932 | 33196 ft | 448 kts | 147° |
| 2026-04-29 20:36 | 48.39185 | 6.99610 | 33196 ft | 453 kts | 148° |
| 2026-04-29 20:36 | 48.33702 | 7.04306 | 33199 ft | 454 kts | 148° |
| 2026-04-29 20:37 | 48.28202 | 7.09004 | 33205 ft | 456 kts | 148° |
| 2026-04-29 20:37 | 48.22674 | 7.13714 | 33216 ft | 457 kts | 148° |
| 2026-04-29 20:38 | 48.17119 | 7.18435 | 33208 ft | 462 kts | 149° |
| 2026-04-29 20:38 | 48.11511 | 7.23190 | 33215 ft | 463 kts | 149° |
| 2026-04-29 20:39 | 48.05921 | 7.27917 | 33234 ft | 458 kts | 149° |
| 2026-04-29 20:39 | 48.00425 | 7.32553 | 33213 ft | 456 kts | 149° |
| 2026-04-29 20:40 | 47.94876 | 7.37222 | 33199 ft | 461 kts | 150° |
| 2026-04-29 20:40 | 47.89280 | 7.41919 | 33186 ft | 461 kts | 150° |
| 2026-04-29 20:41 | 47.83688 | 7.46602 | 33190 ft | 461 kts | 150° |
| 2026-04-29 20:41 | 47.78099 | 7.51270 | 33176 ft | 461 kts | 150° |
| 2026-04-29 20:42 | 47.72391 | 7.55664 | 33181 ft | 464 kts | 160° |
| 2026-04-29 20:42 | 47.66418 | 7.59392 | 33183 ft | 469 kts | 157° |
| 2026-04-29 20:43 | 47.60447 | 7.63250 | 33188 ft | 465 kts | 157° |
| 2026-04-29 20:43 | 47.54512 | 7.67090 | 33155 ft | 468 kts | 157° |
| 2026-04-29 20:44 | 47.48473 | 7.70990 | 33166 ft | 476 kts | 159° |
| 2026-04-29 20:44 | 47.44791 | 7.73363 | 33174 ft | 476 kts | 159° |
| 2026-04-29 20:46 | 47.42027 | 7.75142 | 33179 ft | 476 kts | 159° |
| 2026-04-29 20:47 | 47.35961 | 7.79039 | 33167 ft | 475 kts | 159° |
| 2026-04-29 20:47 | 47.30928 | 7.82266 | 33145 ft | 476 kts | 160° |
| 2026-04-29 20:48 | 47.23803 | 7.86820 | 33159 ft | 481 kts | 160° |
| 2026-04-29 20:48 | 47.17670 | 7.90730 | 33155 ft | 480 kts | 160° |
| 2026-04-29 20:49 | 47.11532 | 7.94634 | 33163 ft | 480 kts | 160° |
| 2026-04-29 20:49 | 47.05344 | 7.98559 | 33154 ft | 483 kts | 161° |
| 2026-04-29 20:50 | 46.99178 | 8.02461 | 33153 ft | 482 kts | 161° |
| 2026-04-29 20:50 | 46.93048 | 8.06331 | 33144 ft | 483 kts | 161° |
| 2026-04-29 20:51 | 46.86883 | 8.10212 | 33112 ft | 483 kts | 161° |
| 2026-04-29 20:51 | 46.82918 | 8.12703 | 33146 ft | 483 kts | 161° |
| 2026-04-29 20:52 | 46.76748 | 8.16569 | 33151 ft | 483 kts | 161° |
| 2026-04-29 20:52 | 46.70564 | 8.20439 | 33239 ft | 485 kts | 161° |
| 2026-04-29 20:53 | 46.67471 | 8.22370 | 33594 ft | 484 kts | 161° |
| 2026-04-29 20:53 | 46.64375 | 8.24302 | 33889 ft | 485 kts | 161° |
| 2026-04-29 20:53 | 46.61266 | 8.26237 | 34207 ft | 485 kts | 161° |
| 2026-04-29 20:53 | 46.58166 | 8.28163 | 34463 ft | 485 kts | 161° |
| 2026-04-29 20:54 | 46.51969 | 8.32012 | 35093 ft | 484 kts | 161° |
| 2026-04-29 20:54 | 46.48881 | 8.33925 | 35177 ft | 483 kts | 161° |
| 2026-04-29 20:55 | 46.43764 | 8.37089 | 35081 ft | 479 kts | 161° |
| 2026-04-29 20:55 | 46.37737 | 8.40803 | 34804 ft | 462 kts | 161° |
| 2026-04-29 20:55 | 46.34805 | 8.42619 | 34580 ft | 455 kts | 161° |
| 2026-04-29 20:56 | 46.31900 | 8.44406 | 34263 ft | 452 kts | 162° |
| 2026-04-29 20:56 | 46.29013 | 8.46174 | 33658 ft | 450 kts | 163° |
| 2026-04-29 20:56 | 46.26032 | 8.47353 | 32967 ft | 439 kts | 180° |
| 2026-04-29 20:56 | 46.23009 | 8.47751 | 32446 ft | 436 kts | 180° |
| 2026-04-29 20:57 | 46.20012 | 8.48230 | 32064 ft | 430 kts | 180° |
| 2026-04-29 20:57 | 46.17065 | 8.48677 | 31690 ft | 423 kts | 181° |
| 2026-04-29 20:57 | 46.14155 | 8.49099 | 31269 ft | 418 kts | 181° |
| 2026-04-29 20:57 | 46.11274 | 8.49469 | 30810 ft | 413 kts | 185° |
| 2026-04-29 20:58 | 46.08465 | 8.49111 | 30325 ft | 401 kts | 197° |
| 2026-04-29 20:58 | 46.05716 | 8.48567 | 29923 ft | 397 kts | 194° |
| 2026-04-29 20:58 | 46.03002 | 8.48072 | 29554 ft | 389 kts | 194° |
| 2026-04-29 20:58 | 46.00333 | 8.47577 | 29246 ft | 384 kts | 194° |
| 2026-04-29 20:59 | 45.97698 | 8.47089 | 28866 ft | 380 kts | 194° |
| 2026-04-29 20:59 | 45.95084 | 8.46606 | 28474 ft | 378 kts | 194° |
| 2026-04-29 20:59 | 45.92474 | 8.46124 | 27934 ft | 379 kts | 194° |
| 2026-04-29 20:59 | 45.89847 | 8.45637 | 27396 ft | 382 kts | 193° |
| 2026-04-29 21:00 | 45.87202 | 8.45148 | 26822 ft | 385 kts | 193° |
| 2026-04-29 21:00 | 45.84543 | 8.44622 | 26248 ft | 387 kts | 192° |
| 2026-04-29 21:00 | 45.81867 | 8.44148 | 25701 ft | 389 kts | 192° |
| 2026-04-29 21:00 | 45.79177 | 8.43663 | 25176 ft | 390 kts | 192° |
| 2026-04-29 21:01 | 45.76478 | 8.43170 | 24661 ft | 392 kts | 191° |
| 2026-04-29 21:01 | 45.73775 | 8.42675 | 24153 ft | 391 kts | 191° |
| 2026-04-29 21:01 | 45.71090 | 8.42182 | 23638 ft | 385 kts | 191° |
| 2026-04-29 21:01 | 45.68460 | 8.41699 | 23040 ft | 377 kts | 191° |
| 2026-04-29 21:02 | 45.65885 | 8.41227 | 22456 ft | 370 kts | 191° |
| 2026-04-29 21:02 | 45.63367 | 8.40689 | 21885 ft | 360 kts | 198° |
| 2026-04-29 21:02 | 45.61130 | 8.39293 | 21325 ft | 346 kts | 214° |
| 2026-04-29 21:02 | 45.59038 | 8.37636 | 20791 ft | 341 kts | 212° |
| 2026-04-29 21:03 | 45.56965 | 8.36036 | 20278 ft | 337 kts | 212° |
| 2026-04-29 21:03 | 45.54920 | 8.34445 | 19759 ft | 333 kts | 212° |
| 2026-04-29 21:03 | 45.52902 | 8.32868 | 19250 ft | 329 kts | 212° |
| 2026-04-29 21:03 | 45.50927 | 8.31324 | 18750 ft | 326 kts | 212° |
| 2026-04-29 21:04 | 45.48943 | 8.29773 | 18240 ft | 324 kts | 212° |
| 2026-04-29 21:04 | 45.46956 | 8.28220 | 17718 ft | 320 kts | 211° |
| 2026-04-29 21:04 | 45.45011 | 8.26701 | 17215 ft | 318 kts | 211° |
| 2026-04-29 21:04 | 45.43082 | 8.25194 | 16717 ft | 315 kts | 211° |
| 2026-04-29 21:05 | 45.41159 | 8.23695 | 16231 ft | 314 kts | 211° |
| 2026-04-29 21:05 | 45.39247 | 8.22204 | 15746 ft | 313 kts | 211° |
| 2026-04-29 21:05 | 45.37345 | 8.20724 | 15269 ft | 311 kts | 211° |
| 2026-04-29 21:05 | 45.35449 | 8.19249 | 14795 ft | 310 kts | 211° |
| 2026-04-29 21:06 | 45.33572 | 8.17789 | 14350 ft | 313 kts | 211° |
| 2026-04-29 21:06 | 45.31631 | 8.16280 | 13913 ft | 314 kts | 211° |
| 2026-04-29 21:06 | 45.29714 | 8.14793 | 13507 ft | 313 kts | 211° |
| 2026-04-29 21:06 | 45.27835 | 8.13335 | 13164 ft | 310 kts | 211° |
| 2026-04-29 21:07 | 45.26009 | 8.11691 | 12771 ft | 304 kts | 225° |
| 2026-04-29 21:07 | 45.24836 | 8.09330 | 12403 ft | 295 kts | 250° |
| 2026-04-29 21:07 | 45.24343 | 8.06554 | 12102 ft | 288 kts | 261° |
| 2026-04-29 21:07 | 45.23972 | 8.03767 | 11778 ft | 286 kts | 261° |
| 2026-04-29 21:08 | 45.23619 | 8.00993 | 11483 ft | 285 kts | 262° |
| 2026-04-29 21:08 | 45.23278 | 7.98233 | 11185 ft | 284 kts | 262° |
| 2026-04-29 21:08 | 45.22943 | 7.95477 | 10900 ft | 283 kts | 262° |
| 2026-04-29 21:08 | 45.22615 | 7.92737 | 10634 ft | 281 kts | 262° |
| 2026-04-29 21:09 | 45.22289 | 7.90007 | 10376 ft | 280 kts | 262° |
| 2026-04-29 21:09 | 45.21965 | 7.87285 | 10123 ft | 279 kts | 262° |
| 2026-04-29 21:09 | 45.21642 | 7.84575 | 9851 ft | 278 kts | 261° |
| 2026-04-29 21:09 | 45.21023 | 7.81992 | 9532 ft | 278 kts | 238° |
| 2026-04-29 21:10 | 45.19669 | 7.80069 | 9234 ft | 279 kts | 211° |
| 2026-04-29 21:10 | 45.17852 | 7.79146 | 8957 ft | 280 kts | 188° |
| 2026-04-29 21:10 | 45.15911 | 7.78939 | 8703 ft | 280 kts | 184° |
| 2026-04-29 21:10 | 45.13970 | 7.78772 | 8442 ft | 278 kts | 184° |
| 2026-04-29 21:11 | 45.12041 | 7.78621 | 8191 ft | 276 kts | 183° |
| 2026-04-29 21:11 | 45.10124 | 7.78480 | 7941 ft | 277 kts | 182° |
| 2026-04-29 21:11 | 45.08209 | 7.78347 | 7694 ft | 274 kts | 182° |
| 2026-04-29 21:11 | 45.06308 | 7.78220 | 7444 ft | 272 kts | 182° |
| 2026-04-29 21:12 | 45.04424 | 7.78096 | 7192 ft | 270 kts | 182° |
| 2026-04-29 21:12 | 45.02572 | 7.77973 | 6944 ft | 264 kts | 182° |
| 2026-04-29 21:12 | 45.00757 | 7.77855 | 6692 ft | 258 kts | 182° |
| 2026-04-29 21:12 | 44.98970 | 7.77738 | 6447 ft | 256 kts | 181° |
| 2026-04-29 21:13 | 44.97185 | 7.77622 | 6195 ft | 257 kts | 182° |
| 2026-04-29 21:13 | 44.95402 | 7.77505 | 5938 ft | 256 kts | 182° |
| 2026-04-29 21:13 | 44.93630 | 7.77387 | 5680 ft | 255 kts | 181° |
| 2026-04-29 21:13 | 44.91862 | 7.77270 | 5421 ft | 254 kts | 181° |
| 2026-04-29 21:14 | 44.90093 | 7.77153 | 5169 ft | 255 kts | 181° |
| 2026-04-29 21:14 | 44.88323 | 7.77037 | 4924 ft | 254 kts | 182° |
| 2026-04-29 21:14 | 44.86562 | 7.76921 | 4670 ft | 253 kts | 182° |
| 2026-04-29 21:14 | 44.84810 | 7.76807 | 4425 ft | 251 kts | 182° |
| 2026-04-29 21:15 | 44.83078 | 7.76650 | 4196 ft | 248 kts | 189° |
| 2026-04-29 21:15 | 44.81572 | 7.75610 | 4020 ft | 241 kts | 225° |
| 2026-04-29 21:15 | 44.80762 | 7.73660 | 3977 ft | 236 kts | 257° |
| 2026-04-29 21:15 | 44.80653 | 7.71336 | 4016 ft | 237 kts | 273° |
| 2026-04-29 21:16 | 44.80705 | 7.69037 | 4000 ft | 240 kts | 273° |
| 2026-04-29 21:16 | 44.80811 | 7.66686 | 3989 ft | 241 kts | 283° |
| 2026-04-29 21:16 | 44.81497 | 7.64583 | 3976 ft | 236 kts | 311° |
| 2026-04-29 21:16 | 44.82767 | 7.63226 | 3974 ft | 225 kts | 340° |
| 2026-04-29 21:17 | 44.84271 | 7.62850 | 4038 ft | 219 kts | 360° |
| 2026-04-29 21:17 | 44.85791 | 7.63004 | 4066 ft | 220 kts | 7° |
| 2026-04-29 21:17 | 44.87313 | 7.63081 | 4001 ft | 219 kts | 360° |
| 2026-04-29 21:17 | 44.88828 | 7.63075 | 3994 ft | 214 kts | 1° |
| 2026-04-29 21:18 | 44.90260 | 7.63124 | 3999 ft | 198 kts | 2° |
| 2026-04-29 21:18 | 44.91569 | 7.63190 | 3997 ft | 177 kts | 2° |
| 2026-04-29 21:18 | 44.92702 | 7.63254 | 4003 ft | 152 kts | 2° |
| 2026-04-29 21:18 | 44.93761 | 7.63316 | 4116 ft | 153 kts | 2° |
| 2026-04-29 21:19 | 44.94833 | 7.63381 | 4110 ft | 155 kts | 2° |
| 2026-04-29 21:19 | 44.95908 | 7.63446 | 4058 ft | 155 kts | 2° |
| 2026-04-29 21:19 | 44.96981 | 7.63513 | 4023 ft | 154 kts | 2° |
| 2026-04-29 21:19 | 44.98052 | 7.63579 | 4003 ft | 154 kts | 2° |
| 2026-04-29 21:20 | 44.99121 | 7.63646 | 4001 ft | 154 kts | 2° |
| 2026-04-29 21:20 | 45.00191 | 7.63713 | 3999 ft | 154 kts | 2° |
| 2026-04-29 21:20 | 45.01264 | 7.63781 | 3999 ft | 154 kts | 2° |
| 2026-04-29 21:20 | 45.02338 | 7.63848 | 3992 ft | 154 kts | 2° |
| 2026-04-29 21:21 | 45.03412 | 7.63915 | 3875 ft | 154 kts | 2° |
| 2026-04-29 21:21 | 45.04476 | 7.63982 | 3707 ft | 153 kts | 2° |
| 2026-04-29 21:21 | 45.05538 | 7.64049 | 3522 ft | 153 kts | 2° |
| 2026-04-29 21:21 | 45.06597 | 7.64115 | 3338 ft | 152 kts | 2° |
| 2026-04-29 21:22 | 45.07655 | 7.64184 | 3124 ft | 152 kts | 3° |
| 2026-04-29 21:22 | 45.08708 | 7.64264 | 2903 ft | 151 kts | 2° |
| 2026-04-29 21:22 | 45.09758 | 7.64336 | 2696 ft | 151 kts | 3° |
| 2026-04-29 21:22 | 45.10804 | 7.64428 | 2455 ft | 150 kts | 4° |
| 2026-04-29 21:23 | 45.11847 | 7.64489 | 2186 ft | 150 kts | 0° |
| 2026-04-29 21:23 | 45.12873 | 7.64509 | 1978 ft | 149 kts | 2° |
| 2026-04-29 21:23 | 45.13910 | 7.64579 | 1816 ft | 149 kts | 3° |
| 2026-04-29 21:23 | 45.14942 | 7.64640 | 1674 ft | 148 kts | 2° |
| 2026-04-29 21:24 | 45.15967 | 7.64703 | 1521 ft | 147 kts | 4° |
| 2026-04-29 21:24 | 45.16983 | 7.64772 | 1328 ft | 146 kts | 2° |
| 2026-04-29 21:24 | 45.17994 | 7.64828 | 1153 ft | 145 kts | 4° |
| 2026-04-29 21:24 | 45.18995 | 7.64897 | 1006 ft | 143 kts | 2° |
| 2026-04-29 21:25 | 45.19871 | 7.64953 | 987 ft | 96 kts | 2° |
| 2026-04-29 21:25 | 45.20338 | 7.64980 | 989 ft | 48 kts | 2° |
| 2026-04-29 21:25 | 45.20580 | 7.64995 | 986 ft | 31 kts | 2° |
| 2026-04-29 21:25 | 45.20778 | 7.65006 | 988 ft | 19 kts | 358° |
| 2026-04-29 21:26 | 45.20867 | 7.64923 | 990 ft | 10 kts | 300° |
| 2026-04-29 21:26 | 45.20876 | 7.64882 | 992 ft | 0 kts | 281° |
| 2026-04-29 21:27 | 45.20877 | 7.64875 | 991 ft | 3 kts | 278° |
| 2026-04-29 21:27 | 45.20878 | 7.64816 | 987 ft | 9 kts | 261° |
| 2026-04-29 21:27 | 45.20830 | 7.64753 | 994 ft | 11 kts | 197° |
| 2026-04-29 21:28 | 45.20748 | 7.64739 | 988 ft | 13 kts | 182° |
| 2026-04-29 21:28 | 45.20649 | 7.64733 | 995 ft | 16 kts | 182° |
| 2026-04-29 21:28 | 45.20532 | 7.64726 | 988 ft | 18 kts | 182° |
| 2026-04-29 21:28 | 45.20428 | 7.64718 | 988 ft | 11 kts | 183° |
| 2026-04-29 21:29 | 45.20343 | 7.64712 | 991 ft | 14 kts | 181° |
| 2026-04-29 21:29 | 45.20240 | 7.64708 | 988 ft | 16 kts | 182° |
| 2026-04-29 21:29 | 45.20131 | 7.64699 | 988 ft | 12 kts | 182° |
| 2026-04-29 21:29 | 45.20058 | 7.64695 | 992 ft | 12 kts | 182° |
| 2026-04-29 21:30 | 45.19967 | 7.64689 | 993 ft | 14 kts | 182° |
| 2026-04-29 21:30 | 45.19858 | 7.64682 | 988 ft | 17 kts | 182° |
| 2026-04-29 21:30 | 45.19753 | 7.64692 | 988 ft | 13 kts | 162° |
| 2026-04-29 21:30 | 45.19656 | 7.64693 | 988 ft | 15 kts | 182° |
| 2026-04-29 21:31 | 45.19544 | 7.64686 | 991 ft | 15 kts | 182° |
| 2026-04-29 21:31 | 45.19461 | 7.64681 | 988 ft | 13 kts | 182° |
| 2026-04-29 21:31 | 45.19365 | 7.64675 | 990 ft | 15 kts | 182° |
| 2026-04-29 21:31 | 45.19282 | 7.64669 | 988 ft | 8 kts | 182° |
| 2026-04-29 21:32 | 45.19242 | 7.64653 | 988 ft | 6 kts | 233° |
| 2026-04-29 21:32 | 45.19232 | 7.64596 | 992 ft | 6 kts | 257° |
| 2026-04-29 21:32 | 45.19226 | 7.64556 | 988 ft | 3 kts | 257° |
| 2026-04-29 21:32 | 45.19222 | 7.64532 | 988 ft | 0 kts | 257° |